LiveATC.Net - Listen to live air traffic control over the Internet!


ICAO: KHRL  IATA: HRL   Airport: Valley International Airport
City: Harlingen   State/Province: Texas
Country: United States   Continent: North America
KHRL METAR Weather: KHRL 081757Z 01005KT 10SM OVC013 23/18 A3001 RMK AO2 T02280183
KHRL Flight Activity (FlightAware)
KHRL Airport Info   (iFlightPlanner)
KHRL VFR Sectional Chart   (iFlightPlanner) 
KHRL IFR Low Altitude Chart   (iFlightPlanner) 
KHRL IFR High Altitude Chart   (iFlightPlanner) 

KHRL Gnd/Twr/App
Feed Status: DOWN
Last heard on: 2021-12-08 18:16:39 (0 days 0 hours 2 minutes ago)
Archive Access: KHRL Gnd/Twr/App
FacilityFrequency
Harlingen Clearance/Ground121.700
Harlingen Tower119.300
Valley Approach120.700

NOTICE

Unauthorized use prohibited. See LiveATC.net Terms of Service


Airport/ARTCC Code
Frequency Search
(e.g., 124.400, 128.75)
Site-wide search
 


Browse Feeds
Top 50 Feeds
HF Oceanic Feeds
Coverage Map
Bad Weather Areas

LiveATC FAQ
Offer LiveATC feed
Contact LiveATC.net
Press Inquiries

LiveATC on iPhone
LiveATC on Android

Windows Phone
Windows 8/10

LiveATC Mobile
(Mobile browser)

ATC Audio Archives
Interesting Recordings

LiveATC Forums


Home Page
About LiveATC.net
Make a Donation
Terms of Use
Privacy Policy

Canadian Air Freqs

AIRMETs/SIGMETs

FAA Airport Status
NAS Status
Arrival Demand


Server Software By:
Icecast.org
Liquidsoap